createdAt,value
2019-05-19T00:01:00.409Z,12.87
2019-05-19T00:03:26.224Z,12.88
2019-05-19T00:05:52.011Z,12.76
2019-05-19T00:08:17.825Z,12.66
2019-05-19T00:10:43.609Z,12.69
2019-05-19T00:13:09.419Z,12.73
2019-05-19T00:15:35.299Z,12.65
2019-05-19T00:18:01.131Z,12.71
2019-05-19T00:20:26.902Z,12.84
2019-05-19T00:22:52.697Z,12.84
2019-05-19T00:25:18.497Z,12.76
2019-05-19T00:27:44.291Z,12.71
2019-05-19T00:30:10.783Z,12.68
2019-05-19T00:32:36.591Z,12.60
2019-05-19T00:35:04.181Z,12.63
2019-05-19T00:37:30.019Z,12.43
2019-05-19T00:39:55.808Z,12.38
2019-05-19T00:42:21.602Z,12.38
2019-05-19T00:44:47.403Z,12.31
2019-05-19T00:47:13.190Z,12.41
2019-05-19T00:49:41.604Z,12.43
2019-05-19T00:52:06.695Z,12.58
2019-05-19T00:54:32.494Z,12.57
2019-05-19T00:56:59.086Z,12.63
2019-05-19T00:59:25.389Z,12.67
2019-05-19T01:01:51.179Z,12.61
2019-05-19T01:04:17.261Z,12.59
2019-05-19T01:06:43.062Z,12.60
2019-05-19T01:09:08.881Z,12.49
2019-05-19T01:11:34.663Z,12.40
2019-05-19T01:14:00.497Z,12.38
2019-05-19T01:16:26.278Z,12.25
2019-05-19T01:18:52.230Z,12.22
2019-05-19T01:21:18.139Z,12.25
2019-05-19T01:23:43.945Z,12.25
2019-05-19T01:26:09.735Z,12.21
2019-05-19T01:28:35.579Z,12.25
2019-05-19T01:31:01.395Z,12.22
2019-05-19T01:33:27.261Z,12.18
2019-05-19T01:35:53.193Z,12.16
2019-05-19T01:38:18.996Z,12.25
2019-05-19T01:40:44.918Z,12.27
2019-05-19T01:43:10.768Z,12.25
2019-05-19T01:45:36.585Z,12.23
2019-05-19T01:48:02.366Z,12.19
2019-05-19T01:50:28.269Z,12.30
2019-05-19T01:52:54.241Z,12.20
2019-05-19T01:55:20.050Z,12.11
2019-05-19T01:57:45.858Z,12.05
2019-05-19T02:00:11.769Z,12.00
2019-05-19T02:02:37.565Z,11.99
2019-05-19T02:05:06.951Z,11.98
2019-05-19T02:07:32.864Z,12.06
2019-05-19T02:09:58.672Z,12.07
2019-05-19T02:12:24.494Z,12.16
2019-05-19T02:14:50.329Z,12.19
2019-05-19T02:17:16.123Z,12.13
2019-05-19T02:19:41.926Z,12.19
2019-05-19T02:22:07.730Z,12.09
2019-05-19T02:24:33.523Z,12.06
2019-05-19T02:26:59.331Z,12.00
2019-05-19T02:29:25.136Z,11.97
2019-05-19T02:31:50.936Z,11.90
2019-05-19T02:34:16.716Z,11.93
2019-05-19T02:36:42.548Z,11.73
2019-05-19T02:39:08.331Z,11.73
2019-05-19T02:41:35.736Z,11.74
2019-05-19T02:44:01.629Z,11.70
2019-05-19T02:46:28.183Z,11.70
2019-05-19T02:48:54.340Z,11.72
2019-05-19T02:51:21.174Z,11.72
2019-05-19T02:53:47.387Z,11.75
2019-05-19T02:56:13.602Z,11.75
2019-05-19T02:58:39.822Z,11.71
2019-05-19T03:01:05.621Z,11.69
2019-05-19T03:03:31.423Z,11.71
2019-05-19T03:05:57.260Z,11.72
2019-05-19T03:08:23.070Z,11.74
2019-05-19T03:10:48.858Z,11.77
2019-05-19T03:13:14.670Z,11.78
2019-05-19T03:15:40.468Z,11.73
2019-05-19T03:18:06.266Z,11.78
2019-05-19T03:20:32.050Z,11.74
2019-05-19T03:22:57.881Z,11.72
2019-05-19T03:25:23.696Z,11.66
2019-05-19T03:27:49.505Z,11.67
2019-05-19T03:30:29.515Z,11.62
2019-05-19T03:32:57.237Z,11.63
2019-05-19T03:35:23.144Z,11.64
2019-05-19T03:37:48.951Z,11.69
2019-05-19T03:40:20.242Z,11.71
2019-05-19T03:42:47.877Z,11.71
2019-05-19T03:45:13.688Z,11.73
2019-05-19T03:47:39.512Z,11.77
2019-05-19T03:50:05.394Z,11.85
2019-05-19T03:52:31.269Z,11.75
2019-05-19T03:54:57.029Z,11.70
2019-05-19T03:57:22.846Z,11.72
2019-05-19T03:59:48.653Z,11.75
2019-05-19T04:02:14.470Z,11.78
2019-05-19T04:04:40.261Z,11.77
2019-05-19T04:07:06.069Z,11.81
2019-05-19T04:09:31.899Z,11.81
2019-05-19T04:11:57.673Z,11.76
2019-05-19T04:14:24.224Z,11.72
2019-05-19T04:16:50.713Z,11.73
2019-05-19T04:19:16.521Z,11.80
2019-05-19T04:21:48.958Z,11.80
2019-05-19T04:24:10.014Z,11.75
2019-05-19T04:26:35.799Z,11.74
2019-05-19T04:29:01.627Z,11.77
2019-05-19T04:31:27.444Z,11.77
2019-05-19T04:33:53.237Z,11.86
2019-05-19T04:36:19.035Z,11.87
2019-05-19T04:38:44.846Z,11.89
2019-05-19T04:41:10.628Z,11.96
2019-05-19T04:43:36.431Z,12.05
2019-05-19T04:46:02.236Z,12.03
2019-05-19T04:48:28.050Z,11.90
2019-05-19T04:50:53.844Z,11.85
2019-05-19T04:53:19.643Z,11.74
2019-05-19T04:55:45.460Z,11.70
2019-05-19T04:58:11.243Z,11.73
2019-05-19T05:00:37.039Z,11.69
2019-05-19T05:03:02.838Z,11.58
2019-05-19T05:05:28.654Z,11.69
2019-05-19T05:07:54.461Z,11.75
2019-05-19T05:10:20.280Z,11.82
2019-05-19T05:12:46.094Z,11.71
2019-05-19T05:15:12.090Z,11.70
2019-05-19T05:17:37.875Z,11.74
2019-05-19T05:20:04.979Z,11.75
2019-05-19T05:22:30.770Z,11.75
2019-05-19T05:24:56.585Z,11.94
2019-05-19T05:27:22.368Z,12.09
2019-05-19T05:29:48.192Z,12.07
2019-05-19T05:32:13.966Z,12.14
2019-05-19T05:34:39.804Z,12.12
2019-05-19T05:37:05.606Z,12.06
2019-05-19T05:39:31.397Z,12.06
2019-05-19T05:41:57.193Z,12.06
2019-05-19T05:44:22.999Z,12.10
2019-05-19T05:46:48.811Z,12.26
2019-05-19T05:49:14.612Z,12.23
2019-05-19T05:51:40.404Z,12.28
2019-05-19T05:54:06.216Z,12.21
2019-05-19T05:56:32.057Z,12.13
2019-05-19T05:58:57.840Z,12.13
2019-05-19T06:01:23.707Z,12.23
2019-05-19T06:03:49.537Z,12.29
2019-05-19T06:06:15.362Z,12.33
2019-05-19T06:08:41.166Z,12.30
2019-05-19T06:11:07.083Z,12.13
2019-05-19T06:13:32.874Z,12.25
2019-05-19T06:15:58.690Z,12.36
2019-05-19T06:18:24.478Z,12.54
2019-05-19T06:20:50.256Z,12.58
2019-05-19T06:23:16.060Z,12.55
2019-05-19T06:25:41.866Z,12.41
2019-05-19T06:28:07.669Z,12.51
2019-05-19T06:30:33.456Z,12.65
2019-05-19T06:33:00.770Z,12.50
2019-05-19T06:35:26.562Z,12.59
2019-05-19T06:37:52.359Z,12.68
2019-05-19T06:40:18.155Z,12.72
2019-05-19T06:42:43.955Z,12.85
2019-05-19T06:45:11.048Z,13.09
2019-05-19T06:47:36.875Z,13.05
2019-05-19T06:50:07.171Z,13.14
2019-05-19T06:52:32.963Z,13.06
2019-05-19T06:54:58.778Z,13.01
2019-05-19T06:57:24.604Z,13.01
2019-05-19T06:59:50.387Z,13.31
2019-05-19T07:02:16.256Z,13.40
2019-05-19T07:04:42.092Z,13.34
2019-05-19T07:07:07.961Z,13.22
2019-05-19T07:09:33.817Z,13.32
2019-05-19T07:11:59.664Z,13.39
2019-05-19T07:14:25.449Z,13.26
2019-05-19T07:16:51.290Z,13.14
2019-05-19T07:19:17.179Z,13.25
2019-05-19T07:21:42.963Z,13.46
2019-05-19T07:24:08.773Z,13.49
2019-05-19T07:26:34.567Z,13.45
2019-05-19T07:29:00.400Z,13.58
2019-05-19T07:31:26.202Z,13.65
2019-05-19T07:33:52.019Z,13.50
2019-05-19T07:36:17.801Z,13.63
2019-05-19T07:38:43.598Z,13.67
2019-05-19T07:41:09.410Z,13.79
2019-05-19T07:43:35.217Z,13.99
2019-05-19T07:46:01.013Z,14.33
2019-05-19T07:48:26.823Z,14.61
2019-05-19T07:50:52.606Z,14.36
2019-05-19T07:53:18.445Z,14.47
2019-05-19T07:55:44.750Z,14.58
2019-05-19T07:58:10.530Z,14.60
2019-05-19T08:00:36.380Z,14.68
2019-05-19T08:03:02.364Z,14.86
2019-05-19T08:05:28.195Z,14.94
2019-05-19T08:07:53.982Z,15.03
2019-05-19T08:10:20.000Z,15.11
2019-05-19T08:12:45.795Z,14.89
2019-05-19T08:15:11.909Z,14.86
2019-05-19T08:17:37.718Z,14.92
2019-05-19T08:20:06.937Z,15.15
2019-05-19T08:22:32.753Z,15.60
2019-05-19T08:24:58.551Z,15.78
2019-05-19T08:27:24.334Z,15.78
2019-05-19T08:29:50.173Z,15.67
2019-05-19T08:32:15.956Z,15.46
2019-05-19T08:34:41.753Z,15.55
2019-05-19T08:37:07.553Z,15.56
2019-05-19T08:39:33.371Z,15.76
2019-05-19T08:41:59.155Z,16.05
2019-05-19T08:44:24.979Z,16.49
2019-05-19T08:46:50.758Z,16.59
2019-05-19T08:49:16.569Z,16.50
2019-05-19T08:51:42.408Z,16.74
2019-05-19T08:54:14.997Z,16.96
2019-05-19T08:56:36.014Z,16.86
2019-05-19T08:59:01.842Z,17.08
2019-05-19T09:01:27.700Z,17.08
2019-05-19T09:03:53.604Z,16.92
2019-05-19T09:06:19.426Z,16.84
2019-05-19T09:08:45.234Z,17.09
2019-05-19T09:11:11.036Z,17.73
2019-05-19T09:13:36.854Z,17.81
2019-05-19T09:16:02.863Z,18.23
2019-05-19T09:18:28.663Z,18.93
2019-05-19T09:20:54.778Z,18.95
2019-05-19T09:23:20.675Z,18.43
2019-05-19T09:25:46.485Z,18.85
2019-05-19T09:28:13.170Z,19.07
2019-05-19T09:30:38.980Z,18.57
2019-05-19T09:33:04.808Z,18.27
2019-05-19T09:35:30.671Z,17.91
2019-05-19T09:37:56.493Z,18.77
2019-05-19T09:40:22.368Z,19.44
2019-05-19T09:42:48.421Z,19.65
2019-05-19T09:45:14.364Z,20.20
2019-05-19T09:47:40.356Z,20.27
2019-05-19T09:50:06.977Z,20.23
2019-05-19T09:52:32.809Z,20.45
2019-05-19T09:54:58.865Z,20.41
2019-05-19T09:57:24.760Z,20.78
2019-05-19T09:59:51.819Z,20.55
2019-05-19T10:02:17.708Z,20.66
2019-05-19T10:04:45.519Z,20.69
2019-05-19T10:07:11.385Z,20.47
2019-05-19T10:10:03.181Z,20.28
2019-05-19T10:12:28.981Z,19.83
2019-05-19T10:14:54.791Z,19.91
2019-05-19T10:17:20.868Z,19.62
2019-05-19T10:19:46.673Z,19.99
2019-05-19T10:22:13.452Z,20.37
2019-05-19T10:24:39.299Z,20.58
2019-05-19T10:27:05.123Z,20.89
2019-05-19T10:29:34.245Z,21.27
2019-05-19T10:32:00.082Z,21.23
2019-05-19T10:34:25.974Z,21.27
2019-05-19T10:36:52.709Z,21.52
2019-05-19T10:39:18.891Z,21.79
2019-05-19T10:41:45.333Z,21.85
2019-05-19T10:44:11.248Z,21.42
2019-05-19T10:46:39.263Z,20.85
2019-05-19T10:51:59.067Z,21.50
2019-05-19T10:54:26.131Z,22.28
2019-05-19T10:56:55.815Z,21.90
2019-05-19T10:59:22.388Z,22.01
2019-05-19T11:01:50.826Z,22.18
2019-05-19T11:04:17.008Z,22.73
2019-05-19T11:06:46.477Z,23.06
2019-05-19T11:09:12.974Z,22.81
2019-05-19T11:11:39.242Z,22.36
2019-05-19T11:14:06.283Z,22.38
2019-05-19T11:16:37.154Z,22.39
2019-05-19T11:19:03.303Z,22.59
2019-05-19T11:21:29.187Z,22.68
2019-05-19T11:23:55.004Z,22.95
2019-05-19T11:26:21.036Z,23.26
2019-05-19T11:28:46.976Z,23.23
2019-05-19T11:31:12.736Z,23.02
2019-05-19T11:33:38.615Z,23.08
2019-05-19T11:36:06.007Z,23.09
2019-05-19T11:38:31.875Z,23.37
2019-05-19T11:40:57.667Z,23.32
2019-05-19T11:43:23.566Z,23.21
2019-05-19T11:45:49.412Z,23.33
2019-05-19T11:48:15.218Z,23.44
2019-05-19T11:50:42.221Z,23.67
2019-05-19T11:53:08.207Z,24.27
2019-05-19T11:55:34.023Z,24.19
2019-05-19T11:57:59.849Z,23.98
2019-05-19T12:00:25.762Z,24.24
2019-05-19T12:02:51.549Z,24.12
2019-05-19T12:05:17.417Z,23.95
2019-05-19T12:07:43.196Z,23.66
2019-05-19T12:10:09.093Z,24.18
2019-05-19T12:12:34.916Z,23.68
2019-05-19T12:15:00.876Z,23.81
2019-05-19T12:17:26.706Z,23.72
2019-05-19T12:19:53.442Z,23.74
2019-05-19T12:22:20.351Z,24.00
2019-05-19T12:24:47.150Z,23.97
2019-05-19T12:27:13.757Z,24.20
2019-05-19T12:29:40.398Z,24.09
2019-05-19T12:32:07.243Z,24.29
2019-05-19T12:34:34.318Z,24.50
2019-05-19T12:37:00.235Z,24.99
2019-05-19T12:39:26.031Z,24.90
2019-05-19T12:41:51.831Z,24.36
2019-05-19T12:44:17.623Z,24.32
2019-05-19T12:46:43.438Z,24.47
2019-05-19T12:49:09.244Z,24.29
2019-05-19T12:51:35.171Z,24.26
2019-05-19T12:54:00.973Z,24.39
2019-05-19T12:56:39.235Z,24.40
2019-05-19T12:58:54.456Z,24.63
2019-05-19T13:01:20.355Z,24.27
2019-05-19T13:03:46.161Z,24.45
2019-05-19T13:06:11.962Z,24.76
2019-05-19T13:08:37.753Z,24.85
2019-05-19T13:11:03.594Z,24.89
2019-05-19T13:13:29.431Z,24.77
2019-05-19T13:15:55.255Z,24.85
2019-05-19T13:21:02.940Z,25.54
2019-05-19T13:23:28.738Z,25.19
2019-05-19T13:25:54.546Z,24.44
2019-05-19T13:28:21.388Z,24.15
2019-05-19T13:30:47.437Z,24.02
2019-05-19T13:33:13.361Z,23.82
2019-05-19T13:35:39.191Z,23.95
2019-05-19T13:38:05.079Z,24.17
2019-05-19T13:40:30.884Z,24.31
2019-05-19T13:42:56.691Z,24.67
2019-05-19T13:45:22.673Z,24.12
2019-05-19T13:47:48.540Z,24.10
2019-05-19T13:50:14.467Z,24.36
2019-05-19T13:52:40.260Z,24.26
2019-05-19T13:55:06.160Z,24.27
2019-05-19T13:57:32.046Z,24.52
2019-05-19T13:59:57.838Z,24.64
2019-05-19T14:02:23.665Z,24.65
2019-05-19T14:04:49.477Z,24.29
2019-05-19T14:07:15.263Z,24.32
2019-05-19T14:12:23.578Z,24.11
2019-05-19T14:14:49.392Z,24.12
2019-05-19T14:17:15.248Z,24.26
2019-05-19T14:19:41.031Z,24.17
2019-05-19T14:22:06.845Z,24.02
2019-05-19T14:24:32.641Z,23.64
2019-05-19T14:26:58.545Z,23.72
2019-05-19T14:29:24.345Z,23.72
2019-05-19T14:31:50.149Z,23.40
2019-05-19T14:34:15.986Z,23.52
2019-05-19T14:36:41.875Z,23.49
2019-05-19T14:39:07.744Z,23.49
2019-05-19T14:41:35.452Z,23.26
2019-05-19T14:44:01.842Z,22.99
2019-05-19T14:46:27.647Z,22.43
2019-05-19T14:48:53.500Z,22.31
2019-05-19T14:51:19.401Z,22.08
2019-05-19T14:53:45.213Z,22.12
2019-05-19T14:56:11.055Z,22.20
2019-05-19T14:58:36.937Z,22.10
2019-05-19T15:01:02.850Z,21.97
2019-05-19T15:03:28.637Z,21.86
2019-05-19T15:05:54.510Z,21.77
2019-05-19T15:08:20.313Z,21.62
2019-05-19T15:10:46.116Z,21.60
2019-05-19T15:13:11.911Z,21.58
2019-05-19T15:15:37.745Z,21.32
2019-05-19T15:18:03.586Z,21.55
2019-05-19T15:20:29.470Z,21.76
2019-05-19T15:22:55.454Z,21.72
2019-05-19T15:25:21.278Z,21.59
2019-05-19T15:27:59.266Z,21.56
2019-05-19T15:30:14.864Z,21.61
2019-05-19T15:32:40.697Z,21.61
2019-05-19T15:35:06.680Z,21.71
2019-05-19T15:37:32.523Z,21.75
2019-05-19T15:39:58.323Z,21.87
2019-05-19T15:42:24.174Z,21.76
2019-05-19T15:44:50.060Z,21.77
2019-05-19T15:47:15.871Z,21.82
2019-05-19T15:49:41.693Z,21.70
2019-05-19T15:52:07.562Z,21.76
2019-05-19T15:54:33.564Z,21.81
2019-05-19T15:56:59.406Z,21.87
2019-05-19T15:59:25.310Z,22.03
2019-05-19T16:01:51.336Z,21.87
2019-05-19T16:04:17.242Z,21.84
2019-05-19T16:06:43.083Z,21.78
2019-05-19T16:09:08.906Z,21.76
2019-05-19T16:11:34.779Z,21.64
2019-05-19T16:14:00.742Z,21.44
2019-05-19T16:16:26.669Z,21.29
2019-05-19T16:18:53.338Z,21.00
2019-05-19T16:21:19.720Z,20.91
2019-05-19T16:23:45.928Z,20.83
2019-05-19T16:26:11.777Z,20.99
2019-05-19T16:28:37.577Z,20.85
2019-05-19T16:31:03.385Z,20.81
2019-05-19T16:33:29.199Z,21.00
2019-05-19T16:35:55.025Z,21.03
2019-05-19T16:38:20.859Z,20.93
2019-05-19T16:40:46.670Z,20.59
2019-05-19T16:43:12.711Z,20.39
2019-05-19T16:45:38.491Z,20.43
2019-05-19T16:48:04.515Z,20.31
2019-05-19T16:50:30.375Z,20.22
2019-05-19T16:52:56.181Z,20.26
2019-05-19T16:55:23.910Z,20.05
2019-05-19T16:57:49.718Z,19.86
2019-05-19T17:00:15.741Z,19.73
2019-05-19T17:02:41.642Z,19.59
2019-05-19T17:05:07.519Z,19.43
2019-05-19T17:07:33.381Z,19.26
2019-05-19T17:09:59.295Z,19.18
2019-05-19T17:12:25.165Z,19.23
2019-05-19T17:14:50.965Z,19.15
2019-05-19T17:17:16.844Z,19.06
2019-05-19T17:19:42.734Z,19.04
2019-05-19T17:22:08.582Z,18.78
2019-05-19T17:24:34.373Z,18.58
2019-05-19T17:27:00.230Z,18.51
2019-05-19T17:29:26.023Z,18.53
2019-05-19T17:32:05.118Z,18.42
2019-05-19T17:34:19.537Z,18.35
2019-05-19T17:36:45.437Z,18.29
2019-05-19T17:39:11.252Z,18.25
2019-05-19T17:41:37.068Z,18.31
2019-05-19T17:44:02.893Z,18.26
2019-05-19T17:46:28.785Z,18.38
2019-05-19T17:48:54.602Z,18.41
2019-05-19T17:51:20.488Z,18.53
2019-05-19T17:53:46.400Z,18.52
2019-05-19T17:56:12.186Z,18.52
2019-05-19T17:58:38.200Z,18.53
2019-05-19T18:01:03.997Z,18.57
2019-05-19T18:03:29.881Z,18.54
2019-05-19T18:05:55.675Z,18.47
2019-05-19T18:08:21.473Z,18.37
2019-05-19T18:10:47.293Z,18.30
2019-05-19T18:13:13.072Z,18.23
2019-05-19T18:15:38.899Z,18.15
2019-05-19T18:18:04.685Z,18.06
2019-05-19T18:20:30.475Z,17.94
2019-05-19T18:22:56.275Z,17.89
2019-05-19T18:25:22.122Z,17.78
2019-05-19T18:27:47.909Z,17.70
2019-05-19T18:30:14.025Z,17.52
2019-05-19T18:32:39.875Z,17.51
2019-05-19T18:35:05.784Z,17.27
2019-05-19T18:37:31.598Z,17.18
2019-05-19T18:39:57.407Z,16.99
2019-05-19T18:42:23.203Z,16.97
2019-05-19T18:44:49.001Z,16.95
2019-05-19T18:47:14.814Z,16.94
2019-05-19T18:49:40.619Z,16.91
2019-05-19T18:52:06.610Z,16.79
2019-05-19T18:54:32.407Z,16.66
2019-05-19T18:56:58.225Z,16.60
2019-05-19T18:59:24.033Z,16.55
2019-05-19T19:01:49.854Z,16.52
2019-05-19T19:04:15.688Z,16.32
2019-05-19T19:06:41.482Z,16.32
2019-05-19T19:09:07.289Z,16.30
2019-05-19T19:11:36.030Z,16.19
2019-05-19T19:14:01.850Z,16.13
2019-05-19T19:16:27.673Z,15.66
2019-05-19T19:18:53.481Z,15.66
2019-05-19T19:21:19.278Z,15.61
2019-05-19T19:23:45.110Z,15.50
2019-05-19T19:26:11.315Z,15.34
2019-05-19T19:28:37.686Z,15.33
2019-05-19T19:31:03.589Z,15.20
2019-05-19T19:33:29.389Z,15.19
2019-05-19T19:35:55.200Z,15.13
2019-05-19T19:38:21.024Z,15.05
2019-05-19T19:40:46.829Z,14.95
2019-05-19T19:43:12.630Z,14.90
2019-05-19T19:45:38.503Z,14.89
2019-05-19T19:48:04.313Z,14.74
2019-05-19T19:50:30.207Z,14.77
2019-05-19T19:52:56.311Z,14.70
2019-05-19T19:55:22.085Z,14.68
2019-05-19T19:57:47.891Z,14.62
2019-05-19T20:00:29.220Z,14.58
2019-05-19T20:02:55.009Z,14.50
2019-05-19T20:05:20.821Z,14.42
2019-05-19T20:07:46.629Z,14.38
2019-05-19T20:10:12.426Z,14.36
2019-05-19T20:12:38.248Z,14.39
2019-05-19T20:15:04.546Z,14.35
2019-05-19T20:17:30.345Z,14.31
2019-05-19T20:19:56.151Z,14.26
2019-05-19T20:22:22.001Z,14.25
2019-05-19T20:24:48.049Z,14.26
2019-05-19T20:27:13.944Z,14.31
2019-05-19T20:29:40.005Z,14.25
2019-05-19T20:32:06.075Z,14.24
2019-05-19T20:34:31.858Z,14.29
2019-05-19T20:36:57.668Z,14.20
2019-05-19T20:39:23.460Z,14.19
2019-05-19T20:41:49.241Z,14.18
2019-05-19T20:44:15.032Z,14.09
2019-05-19T20:46:41.168Z,14.03
2019-05-19T20:49:06.976Z,14.00
2019-05-19T20:51:32.783Z,13.98
2019-05-19T20:53:58.756Z,13.94
2019-05-19T20:56:26.054Z,13.88
2019-05-19T20:58:51.859Z,13.86
2019-05-19T21:01:17.674Z,13.79
2019-05-19T21:03:43.470Z,13.85
2019-05-19T21:06:09.260Z,13.84
2019-05-19T21:08:35.077Z,13.79
2019-05-19T21:11:00.866Z,13.75
2019-05-19T21:13:26.689Z,13.68
2019-05-19T21:15:52.501Z,13.70
2019-05-19T21:18:18.316Z,13.67
2019-05-19T21:20:44.134Z,13.63
2019-05-19T21:23:10.632Z,13.59
2019-05-19T21:25:36.560Z,13.54
2019-05-19T21:28:02.937Z,13.52
2019-05-19T21:30:28.845Z,13.41
2019-05-19T21:32:54.637Z,13.47
2019-05-19T21:35:20.456Z,13.48
2019-05-19T21:37:46.230Z,13.44
2019-05-19T21:40:12.146Z,13.51
2019-05-19T21:42:37.948Z,13.46
2019-05-19T21:45:05.264Z,13.52
2019-05-19T21:47:31.066Z,13.44
2019-05-19T21:49:56.889Z,13.53
2019-05-19T21:52:22.693Z,13.57
2019-05-19T21:54:48.503Z,13.61
2019-05-19T21:57:14.285Z,13.50
2019-05-19T21:59:40.102Z,13.53
2019-05-19T22:02:06.415Z,13.50
2019-05-19T22:04:32.191Z,13.47
2019-05-19T22:06:59.910Z,13.52
2019-05-19T22:09:25.698Z,13.49
2019-05-19T22:11:51.495Z,13.52
2019-05-19T22:14:17.325Z,13.50
2019-05-19T22:16:43.143Z,13.55
2019-05-19T22:19:08.942Z,13.50
2019-05-19T22:21:34.730Z,13.56
2019-05-19T22:24:00.541Z,13.63
2019-05-19T22:26:26.346Z,13.55
2019-05-19T22:28:52.162Z,13.53
2019-05-19T22:31:17.957Z,13.48
2019-05-19T22:33:43.765Z,13.52
2019-05-19T22:36:09.606Z,13.57
2019-05-19T22:38:35.401Z,13.57
2019-05-19T22:41:01.202Z,13.58
2019-05-19T22:43:27.006Z,13.58
2019-05-19T22:45:52.817Z,13.55
2019-05-19T22:48:18.609Z,13.45
2019-05-19T22:50:44.417Z,13.42
2019-05-19T22:53:10.221Z,13.38
2019-05-19T22:55:36.025Z,13.33
2019-05-19T22:58:01.835Z,13.32
2019-05-19T23:00:28.347Z,13.27
2019-05-19T23:02:54.135Z,13.17
2019-05-19T23:05:19.947Z,13.20
2019-05-19T23:07:45.745Z,13.17
2019-05-19T23:10:12.127Z,13.16
2019-05-19T23:12:37.927Z,13.13
2019-05-19T23:15:05.020Z,13.05
2019-05-19T23:17:30.838Z,12.99
2019-05-19T23:19:56.621Z,13.10
2019-05-19T23:22:22.526Z,13.08
2019-05-19T23:24:48.343Z,13.03
2019-05-19T23:27:14.155Z,13.00
2019-05-19T23:29:39.963Z,12.94
2019-05-19T23:32:07.391Z,12.97
2019-05-19T23:34:33.363Z,12.99
2019-05-19T23:36:59.158Z,13.00
2019-05-19T23:39:25.069Z,12.92
2019-05-19T23:41:50.914Z,12.89
2019-05-19T23:44:16.687Z,12.89
2019-05-19T23:46:42.467Z,12.91
2019-05-19T23:49:08.265Z,12.97
2019-05-19T23:51:34.064Z,12.98
2019-05-19T23:53:59.881Z,13.03
2019-05-19T23:56:25.665Z,13.00
2019-05-19T23:58:51.451Z,13.00
